createdAt,value
2023-04-21T00:02:25.355Z,102462.81
2023-04-21T00:04:52.438Z,102468.16
2023-04-21T00:07:20.265Z,102463.84
2023-04-21T00:09:47.304Z,102461.63
2023-04-21T00:12:14.185Z,102459.13
2023-04-21T00:14:40.831Z,102452.28
2023-04-21T00:17:07.512Z,102463.50
2023-04-21T00:19:35.250Z,102454.78
2023-04-21T00:22:04.518Z,102453.88
2023-04-21T00:24:31.180Z,102457.84
2023-04-21T00:26:57.830Z,102453.13
2023-04-21T00:29:24.567Z,102456.69
2023-04-21T00:31:51.325Z,102459.22
2023-04-21T00:34:18.051Z,102458.47
2023-04-21T00:36:44.723Z,102453.34
2023-04-21T00:39:11.552Z,102442.78
2023-04-21T00:41:42.598Z,102454.09
2023-04-21T00:44:10.528Z,102440.97
2023-04-21T00:46:38.572Z,102445.44
2023-04-21T00:49:07.708Z,102443.03
2023-04-21T00:51:36.163Z,102435.31
2023-04-21T00:54:05.729Z,102437.31
2023-04-21T00:56:34.800Z,102438.84
2023-04-21T00:59:02.471Z,102440.06
2023-04-21T01:01:30.898Z,102436.75
2023-04-21T01:03:59.549Z,102432.53
2023-04-21T01:06:34.229Z,102431.69
2023-04-21T01:09:01.798Z,102434.31
2023-04-21T01:11:28.584Z,102422.22
2023-04-21T01:13:55.792Z,102433.78
2023-04-21T01:16:24.927Z,102426.72
2023-04-21T01:18:55.296Z,102430.03
2023-04-21T01:21:22.394Z,102439.91
2023-04-21T01:23:49.223Z,102435.75
2023-04-21T01:26:21.282Z,102421.75
2023-04-21T01:28:48.858Z,102436.66
2023-04-21T01:31:16.960Z,102425.38
2023-04-21T01:33:44.624Z,102426.44
2023-04-21T01:36:11.250Z,102428.91
2023-04-21T01:38:40.393Z,102422.53
2023-04-21T01:41:07.243Z,102419.16
2023-04-21T01:43:34.592Z,102420.69
2023-04-21T01:46:01.353Z,102421.50
2023-04-21T01:48:28.162Z,102414.19
2023-04-21T01:50:54.896Z,102419.59
2023-04-21T01:53:21.645Z,102408.63
2023-04-21T01:55:48.337Z,102413.03
2023-04-21T01:58:15.116Z,102413.25
2023-04-21T02:00:41.806Z,102414.78
2023-04-21T02:03:08.579Z,102415.09
2023-04-21T02:05:35.355Z,102418.44
2023-04-21T02:08:02.078Z,102420.28
2023-04-21T02:10:28.818Z,102414.31
2023-04-21T02:12:55.581Z,102415.81
2023-04-21T02:15:22.282Z,102412.28
2023-04-21T02:17:49.009Z,102399.81
2023-04-21T02:20:15.962Z,102401.78
2023-04-21T02:22:42.650Z,102406.03
2023-04-21T02:25:09.635Z,102395.63
2023-04-21T02:27:36.410Z,102396.69
2023-04-21T02:30:07.538Z,102399.38
2023-04-21T02:32:34.422Z,102396.50
2023-04-21T02:35:01.744Z,102394.44
2023-04-21T02:37:29.046Z,102399.91
2023-04-21T02:39:55.841Z,102391.31
2023-04-21T02:42:22.732Z,102395.53
2023-04-21T02:44:49.658Z,102400.78
2023-04-21T02:47:17.052Z,102394.63
2023-04-21T02:49:44.116Z,102391.38
2023-04-21T02:52:10.727Z,102386.16
2023-04-21T02:54:37.463Z,102386.44
2023-04-21T02:57:15.448Z,102387.53
2023-04-21T02:59:42.145Z,102379.41
2023-04-21T03:02:09.087Z,102375.69
2023-04-21T03:04:36.276Z,102370.78
2023-04-21T03:07:03.054Z,102383.72
2023-04-21T03:09:29.750Z,102369.31
2023-04-21T03:11:56.524Z,102371.59
2023-04-21T03:14:23.302Z,102375.44
2023-04-21T03:16:50.039Z,102381.09
2023-04-21T03:19:20.987Z,102369.03
2023-04-21T03:21:47.925Z,102365.34
2023-04-21T03:24:14.710Z,102369.38
2023-04-21T03:26:41.501Z,102366.31
2023-04-21T03:29:08.205Z,102363.97
2023-04-21T03:31:34.953Z,102361.91
2023-04-21T03:34:01.711Z,102355.63
2023-04-21T03:36:28.358Z,102363.38
2023-04-21T03:38:56.450Z,102347.84
2023-04-21T03:41:25.962Z,102355.63
2023-04-21T03:43:53.030Z,102358.16
2023-04-21T03:46:21.311Z,102352.75
2023-04-21T03:48:48.466Z,102350.16
2023-04-21T03:51:17.830Z,102354.16
2023-04-21T03:53:44.745Z,102356.75
2023-04-21T03:56:11.508Z,102359.00
2023-04-21T03:58:38.204Z,102353.84
2023-04-21T04:01:06.999Z,102351.78
2023-04-21T04:03:34.588Z,102356.13
2023-04-21T04:06:04.030Z,102352.50
2023-04-21T04:08:31.543Z,102353.34
2023-04-21T04:10:58.373Z,102356.63
2023-04-21T04:13:26.511Z,102349.91
2023-04-21T04:15:53.791Z,102363.22
2023-04-21T04:18:21.033Z,102363.97
2023-04-21T04:20:47.807Z,102350.44
2023-04-21T04:23:14.494Z,102352.34
2023-04-21T04:25:41.216Z,102360.91
2023-04-21T04:28:08.002Z,102341.34
2023-04-21T04:30:35.418Z,102339.22
2023-04-21T04:33:02.673Z,102350.44
2023-04-21T04:35:29.496Z,102338.31
2023-04-21T04:37:57.106Z,102347.72
2023-04-21T04:40:23.840Z,102342.31
2023-04-21T04:42:51.585Z,102346.50
2023-04-21T04:45:22.068Z,102352.41
2023-04-21T04:47:51.966Z,102347.28
2023-04-21T04:50:18.725Z,102334.75
2023-04-21T04:52:47.193Z,102327.91
2023-04-21T04:55:14.322Z,102334.78
2023-04-21T04:57:41.325Z,102337.88
2023-04-21T05:00:11.421Z,102334.59
2023-04-21T05:02:38.774Z,102330.06
2023-04-21T05:05:07.118Z,102338.13
2023-04-21T05:07:35.074Z,102331.72
2023-04-21T05:10:02.541Z,102337.81
2023-04-21T05:12:29.331Z,102332.16
2023-04-21T05:14:56.167Z,102322.28
2023-04-21T05:17:22.839Z,102317.16
2023-04-21T05:19:49.612Z,102323.91
2023-04-21T05:22:16.266Z,102318.38
2023-04-21T05:24:44.050Z,102319.09
2023-04-21T05:27:10.731Z,102322.06
2023-04-21T05:29:37.864Z,102328.69
2023-04-21T05:32:05.671Z,102318.38
2023-04-21T05:34:32.529Z,102313.56
2023-04-21T05:36:59.210Z,102320.94
2023-04-21T05:39:27.834Z,102319.97
2023-04-21T05:41:54.608Z,102311.19
2023-04-21T05:44:21.649Z,102308.34
2023-04-21T05:46:48.481Z,102302.28
2023-04-21T05:49:15.150Z,102302.78
2023-04-21T05:51:41.797Z,102308.66
2023-04-21T05:54:08.543Z,102301.00
2023-04-21T05:56:35.260Z,102300.19
2023-04-21T05:59:01.971Z,102296.25
2023-04-21T06:01:28.772Z,102303.91
2023-04-21T06:03:56.923Z,102292.69
2023-04-21T06:06:25.667Z,102298.00
2023-04-21T06:08:52.433Z,102289.38
2023-04-21T06:11:19.303Z,102285.66
2023-04-21T06:13:45.999Z,102283.47
2023-04-21T06:16:12.774Z,102269.81
2023-04-21T06:18:39.409Z,102280.31
2023-04-21T06:21:06.129Z,102279.63
2023-04-21T06:23:33.356Z,102270.72
2023-04-21T06:26:07.263Z,102225.94
2023-04-21T06:28:35.696Z,102205.22
2023-04-21T06:31:04.895Z,102198.22
2023-04-21T06:33:33.739Z,102200.47
2023-04-21T06:36:00.610Z,102170.25
2023-04-21T06:38:27.507Z,102199.63
2023-04-21T06:40:54.377Z,102175.34
2023-04-21T06:43:21.142Z,102199.22
2023-04-21T06:45:47.904Z,102204.09
2023-04-21T06:48:14.647Z,102191.06
2023-04-21T06:50:44.263Z,102190.31
2023-04-21T06:53:31.570Z,102216.16
2023-04-21T06:55:58.733Z,102202.81
2023-04-21T06:58:27.913Z,102226.31
2023-04-21T07:00:54.708Z,102231.63
2023-04-21T07:03:21.623Z,102247.53
2023-04-21T07:05:48.436Z,102246.59
2023-04-21T07:08:15.250Z,102273.03
2023-04-21T07:10:42.394Z,102271.09
2023-04-21T07:13:10.114Z,102265.34
2023-04-21T07:15:36.955Z,102260.34
2023-04-21T07:18:03.898Z,102270.75
2023-04-21T07:20:30.633Z,102255.44
2023-04-21T07:22:57.410Z,102260.69
2023-04-21T07:25:24.432Z,102253.31
2023-04-21T07:27:51.172Z,102256.13
2023-04-21T07:30:18.215Z,102258.53
2023-04-21T07:32:45.060Z,102248.16
2023-04-21T07:35:11.805Z,102249.81
2023-04-21T07:37:40.053Z,102243.53
2023-04-21T07:40:11.613Z,102248.81
2023-04-21T07:42:38.600Z,102241.50
2023-04-21T07:45:05.693Z,102229.31
2023-04-21T07:47:33.537Z,102223.69
2023-04-21T07:50:00.556Z,102233.13
2023-04-21T07:52:27.456Z,102228.81
2023-04-21T07:54:54.190Z,102224.47
2023-04-21T07:57:20.976Z,102227.19
2023-04-21T07:59:47.740Z,102219.88
2023-04-21T08:02:14.481Z,102223.69
2023-04-21T08:04:41.425Z,102215.81
2023-04-21T08:07:10.088Z,102208.69
2023-04-21T08:09:36.940Z,102205.22
2023-04-21T08:12:04.322Z,102194.72
2023-04-21T08:14:32.305Z,102212.84
2023-04-21T08:16:59.654Z,102205.13
2023-04-21T08:19:26.434Z,102199.56
2023-04-21T08:21:53.213Z,102188.94
2023-04-21T08:24:20.412Z,102198.91
2023-04-21T08:26:47.376Z,102184.28
2023-04-21T08:29:14.167Z,102204.97
2023-04-21T08:31:41.354Z,102192.63
2023-04-21T08:34:08.292Z,102205.03
2023-04-21T08:36:35.187Z,102189.75
2023-04-21T08:39:02.166Z,102181.34
2023-04-21T08:41:29.016Z,102191.44
2023-04-21T08:43:55.773Z,102186.25
2023-04-21T08:46:23.866Z,102207.78
2023-04-21T08:48:51.119Z,102198.78
2023-04-21T08:51:23.827Z,102190.75
2023-04-21T08:53:50.651Z,102188.06
2023-04-21T08:56:17.627Z,102190.94
2023-04-21T08:58:44.349Z,102181.94
2023-04-21T09:01:12.195Z,102164.00
2023-04-21T09:03:39.820Z,102168.69
2023-04-21T09:06:09.772Z,102190.47
2023-04-21T09:08:43.617Z,102180.50
2023-04-21T09:11:14.521Z,102185.09
2023-04-21T09:13:43.000Z,102176.47
2023-04-21T09:16:18.545Z,102172.06
2023-04-21T09:18:45.311Z,102165.50
2023-04-21T09:21:21.279Z,102195.56
2023-04-21T09:23:50.188Z,102195.88
2023-04-21T09:26:18.664Z,102193.56
2023-04-21T09:28:47.361Z,102170.88
2023-04-21T09:31:19.958Z,102184.25
2023-04-21T09:33:57.922Z,102177.38
2023-04-21T09:36:29.068Z,102202.44
2023-04-21T09:41:33.005Z,102203.19
2023-04-21T09:44:04.672Z,102201.22
2023-04-21T09:46:36.261Z,102189.50
2023-04-21T09:49:04.446Z,102189.63
2023-04-21T09:52:05.315Z,102188.59
2023-04-21T09:54:29.795Z,102183.94
2023-04-21T09:57:00.215Z,102176.47
2023-04-21T09:59:30.839Z,102172.50
2023-04-21T10:02:00.044Z,102168.78
2023-04-21T10:04:32.425Z,102183.25
2023-04-21T10:07:03.506Z,102176.88
2023-04-21T10:09:51.184Z,102185.53
2023-04-21T10:12:19.511Z,102182.75
2023-04-21T10:14:51.422Z,102173.13
2023-04-21T10:17:18.266Z,102172.69
2023-04-21T10:19:59.958Z,102157.34
2023-04-21T10:22:29.530Z,102155.94
2023-04-21T10:24:57.346Z,102148.78
2023-04-21T10:27:39.595Z,102142.69
2023-04-21T10:30:23.779Z,102151.09
2023-04-21T10:33:06.456Z,102137.88
2023-04-21T10:35:59.264Z,102149.59
2023-04-21T10:38:41.593Z,102166.78
2023-04-21T10:41:29.106Z,102157.56
2023-04-21T10:44:12.187Z,102151.38
2023-04-21T10:46:50.708Z,102142.16
2023-04-21T10:49:25.641Z,102123.88
2023-04-21T10:51:59.207Z,102138.88
2023-04-21T10:54:28.623Z,102122.31
2023-04-21T10:56:56.644Z,102130.22
2023-04-21T10:59:24.870Z,102120.56
2023-04-21T11:01:53.782Z,102104.91
2023-04-21T11:04:23.176Z,102127.56
2023-04-21T11:07:05.555Z,102112.00
2023-04-21T11:09:32.478Z,102121.59
2023-04-21T11:12:04.921Z,102114.50
2023-04-21T11:14:31.622Z,102128.97
2023-04-21T11:16:58.457Z,102119.06
2023-04-21T11:19:26.141Z,102095.63
2023-04-21T11:21:55.877Z,102115.63
2023-04-21T11:24:22.787Z,102095.59
2023-04-21T11:26:49.715Z,102098.00
2023-04-21T11:29:17.376Z,102120.03
2023-04-21T11:31:47.929Z,102123.00
2023-04-21T11:34:16.207Z,102099.47
2023-04-21T11:36:44.764Z,102097.91
2023-04-21T11:39:19.571Z,102097.47
2023-04-21T11:41:50.715Z,102105.75
2023-04-21T11:44:37.023Z,102079.69
2023-04-21T11:47:17.290Z,102084.63
2023-04-21T11:49:58.506Z,102076.66
2023-04-21T11:52:25.196Z,102059.91
2023-04-21T11:55:03.512Z,102077.38
2023-04-21T11:57:31.433Z,102060.09
2023-04-21T11:59:59.483Z,102075.53
2023-04-21T12:02:35.614Z,102066.34
2023-04-21T12:05:04.411Z,102076.16
2023-04-21T12:07:32.666Z,102048.94
2023-04-21T12:10:00.494Z,102060.31
2023-04-21T12:12:27.780Z,102040.66
2023-04-21T12:14:55.251Z,102061.78
2023-04-21T12:17:22.479Z,102062.06
2023-04-21T12:19:49.835Z,102058.94
2023-04-21T12:22:23.494Z,102034.44
2023-04-21T12:24:50.370Z,102038.81
2023-04-21T12:27:17.219Z,102040.41
2023-04-21T12:29:44.001Z,102023.81
2023-04-21T12:32:11.148Z,102012.38
2023-04-21T12:34:38.042Z,102041.44
2023-04-21T12:37:05.001Z,102040.13
2023-04-21T12:39:32.288Z,102017.94
2023-04-21T12:41:59.596Z,102035.44
2023-04-21T12:44:26.403Z,102026.56
2023-04-21T12:46:53.638Z,102014.22
2023-04-21T12:49:20.673Z,102006.84
2023-04-21T12:51:48.953Z,101998.50
2023-04-21T12:54:16.029Z,102003.75
2023-04-21T12:56:43.292Z,101998.25
2023-04-21T12:59:11.201Z,102017.22
2023-04-21T13:01:39.244Z,102036.03
2023-04-21T13:04:06.353Z,101997.72
2023-04-21T13:06:33.807Z,101997.34
2023-04-21T13:09:00.891Z,102010.09
2023-04-21T13:11:27.906Z,101993.22
2023-04-21T13:13:54.964Z,101988.50
2023-04-21T13:16:22.674Z,102001.94
2023-04-21T13:18:49.581Z,101993.69
2023-04-21T13:21:16.712Z,101979.75
2023-04-21T13:23:43.897Z,101966.88
2023-04-21T13:26:10.935Z,101971.97
2023-04-21T13:28:37.937Z,101958.81
2023-04-21T13:31:05.183Z,101952.56
2023-04-21T13:33:34.980Z,101950.31
2023-04-21T13:36:03.534Z,101958.56
2023-04-21T13:38:30.748Z,101947.66
2023-04-21T13:40:57.948Z,101941.41
2023-04-21T13:43:24.760Z,101916.13
2023-04-21T13:45:52.426Z,101967.09
2023-04-21T13:48:21.227Z,101948.84
2023-04-21T13:50:49.222Z,101959.91
2023-04-21T13:53:21.121Z,101960.41
2023-04-21T13:55:48.633Z,101941.50
2023-04-21T13:58:16.668Z,101914.75
2023-04-21T14:00:43.683Z,101912.44
2023-04-21T14:03:11.620Z,101904.75
2023-04-21T14:05:39.224Z,101896.88
2023-04-21T14:08:06.417Z,101906.75
2023-04-21T14:10:33.349Z,101899.13
2023-04-21T14:13:00.308Z,101909.22
2023-04-21T14:15:27.135Z,101862.16
2023-04-21T14:17:54.099Z,101911.44
2023-04-21T14:20:21.149Z,101881.66
2023-04-21T14:22:48.224Z,101882.56
2023-04-21T14:25:15.175Z,101891.81
2023-04-21T14:27:42.020Z,101907.41
2023-04-21T14:30:10.535Z,101895.63
2023-04-21T14:32:37.505Z,101853.84
2023-04-21T14:35:05.590Z,101868.09
2023-04-21T14:37:33.158Z,101878.66
2023-04-21T14:40:00.051Z,101890.63
2023-04-21T14:42:27.005Z,101871.09
2023-04-21T14:44:54.074Z,101874.44
2023-04-21T14:47:21.967Z,101868.84
2023-04-21T14:49:55.029Z,101871.22
2023-04-21T14:52:24.640Z,101885.53
2023-04-21T14:54:51.629Z,101861.97
2023-04-21T14:57:21.079Z,101855.47
2023-04-21T14:59:52.277Z,101872.44
2023-04-21T15:02:20.655Z,101872.19
2023-04-21T15:04:47.699Z,101865.34
2023-04-21T15:07:16.271Z,101883.69
2023-04-21T15:09:45.829Z,101869.31
2023-04-21T15:12:14.688Z,101860.34
2023-04-21T15:14:41.632Z,101868.22
2023-04-21T15:17:08.795Z,101874.56
2023-04-21T15:19:36.515Z,101869.72
2023-04-21T15:22:04.828Z,101880.19
2023-04-21T15:24:31.941Z,101874.44
2023-04-21T15:26:58.823Z,101866.31
2023-04-21T15:29:25.641Z,101854.75
2023-04-21T15:31:52.490Z,101842.63
2023-04-21T15:34:19.378Z,101840.28
2023-04-21T15:36:46.112Z,101844.38
2023-04-21T15:39:15.668Z,101818.81
2023-04-21T15:41:42.416Z,101833.66
2023-04-21T15:44:09.188Z,101837.28
2023-04-21T15:46:36.129Z,101816.31
2023-04-21T15:49:03.275Z,101837.75
2023-04-21T15:51:30.066Z,101844.69
2023-04-21T15:53:56.820Z,101850.03
2023-04-21T15:56:26.840Z,101844.16
2023-04-21T15:58:53.612Z,101840.75
2023-04-21T16:01:21.904Z,101835.13
2023-04-21T16:03:49.420Z,101847.47
2023-04-21T16:06:21.403Z,101829.06
2023-04-21T16:08:48.329Z,101839.16
2023-04-21T16:11:15.340Z,101847.09
2023-04-21T16:13:42.432Z,101847.09
2023-04-21T16:16:09.451Z,101842.31
2023-04-21T16:18:36.233Z,101848.84
2023-04-21T16:21:03.394Z,101836.91
2023-04-21T16:23:30.347Z,101833.41
2023-04-21T16:25:57.147Z,101842.09
2023-04-21T16:28:23.976Z,101832.66
2023-04-21T16:30:50.732Z,101830.19
2023-04-21T16:33:17.534Z,101830.19
2023-04-21T16:35:44.428Z,101808.66
2023-04-21T16:38:11.680Z,101826.84
2023-04-21T16:40:38.655Z,101823.25
2023-04-21T16:43:05.409Z,101822.81
2023-04-21T16:45:32.286Z,101830.66
2023-04-21T16:47:59.110Z,101818.09
2023-04-21T16:50:26.884Z,101817.03
2023-04-21T16:52:53.990Z,101814.22
2023-04-21T16:55:21.013Z,101809.00
2023-04-21T16:57:48.326Z,101820.47
2023-04-21T17:00:15.476Z,101807.38
2023-04-21T17:02:42.428Z,101796.22
2023-04-21T17:05:09.864Z,101798.72
2023-04-21T17:07:39.374Z,101809.00
2023-04-21T17:10:07.400Z,101793.16
2023-04-21T17:12:34.175Z,101786.72
2023-04-21T17:15:00.959Z,101805.22
2023-04-21T17:17:33.520Z,101783.22
2023-04-21T17:20:01.116Z,101788.72
2023-04-21T17:22:28.159Z,101796.91
2023-04-21T17:24:55.425Z,101793.78
2023-04-21T17:27:22.764Z,101793.44
2023-04-21T17:29:50.004Z,101788.22
2023-04-21T17:32:17.242Z,101786.13
2023-04-21T17:34:44.519Z,101780.06
2023-04-21T17:37:12.138Z,101800.81
2023-04-21T17:39:39.046Z,101797.00
2023-04-21T17:42:05.901Z,101789.03
2023-04-21T17:44:33.041Z,101789.44
2023-04-21T17:47:08.139Z,101780.09
2023-04-21T17:49:36.952Z,101772.75
2023-04-21T17:52:04.009Z,101774.19
2023-04-21T17:54:30.894Z,101761.53
2023-04-21T17:56:58.210Z,101781.22
2023-04-21T17:59:25.693Z,101793.47
2023-04-21T18:01:52.450Z,101773.63
2023-04-21T18:04:19.406Z,101784.34
2023-04-21T18:06:46.484Z,101792.00
2023-04-21T18:09:13.282Z,101791.53
2023-04-21T18:11:40.123Z,101793.41
2023-04-21T18:14:07.584Z,101788.44
2023-04-21T18:16:34.764Z,101787.78
2023-04-21T18:19:01.697Z,101779.50
2023-04-21T18:21:28.740Z,101782.34
2023-04-21T18:23:56.084Z,101778.13
2023-04-21T18:26:22.991Z,101780.66
2023-04-21T18:28:49.757Z,101790.09
2023-04-21T18:31:16.634Z,101781.06
2023-04-21T18:33:43.748Z,101776.28
2023-04-21T18:36:11.116Z,101785.00
2023-04-21T18:38:38.426Z,101783.06
2023-04-21T18:41:05.206Z,101782.97
2023-04-21T18:43:34.507Z,101782.28
2023-04-21T18:46:01.275Z,101790.50
2023-04-21T18:48:28.146Z,101773.03
2023-04-21T18:50:54.985Z,101777.88
2023-04-21T18:53:21.701Z,101776.22
2023-04-21T18:55:48.579Z,101766.31
2023-04-21T18:58:16.070Z,101769.19
2023-04-21T19:00:42.828Z,101770.84
2023-04-21T19:03:10.259Z,101764.94
2023-04-21T19:05:38.954Z,101761.56
2023-04-21T19:08:05.876Z,101760.47
2023-04-21T19:10:34.645Z,101762.97
2023-04-21T19:13:01.563Z,101762.56
2023-04-21T19:15:28.362Z,101763.72
2023-04-21T19:17:56.107Z,101759.25
2023-04-21T19:20:22.933Z,101755.72
2023-04-21T19:22:49.677Z,101759.31
2023-04-21T19:25:17.563Z,101762.03
2023-04-21T19:27:44.573Z,101763.03
2023-04-21T19:30:11.565Z,101771.03
2023-04-21T19:32:38.658Z,101763.47
2023-04-21T19:35:05.863Z,101755.22
2023-04-21T19:37:35.039Z,101750.50
2023-04-21T19:40:03.415Z,101753.41
2023-04-21T19:42:30.601Z,101759.00
2023-04-21T19:44:57.446Z,101753.50
2023-04-21T19:47:27.412Z,101752.38
2023-04-21T19:49:54.142Z,101755.34
2023-04-21T19:52:22.460Z,101744.56
2023-04-21T19:54:49.190Z,101747.72
2023-04-21T19:57:16.158Z,101753.75
2023-04-21T19:59:43.153Z,101760.94
2023-04-21T20:02:10.264Z,101760.78
2023-04-21T20:04:37.549Z,101758.31
2023-04-21T20:07:04.946Z,101761.81
2023-04-21T20:09:32.399Z,101764.03
2023-04-21T20:11:59.169Z,101777.69
2023-04-21T20:14:25.930Z,101770.50
2023-04-21T20:16:52.561Z,101775.50
2023-04-21T20:19:22.878Z,101777.59
2023-04-21T20:21:50.141Z,101770.56
2023-04-21T20:24:17.592Z,101782.06
2023-04-21T20:26:44.891Z,101767.59
2023-04-21T20:29:11.769Z,101778.88
2023-04-21T20:31:38.651Z,101777.88
2023-04-21T20:34:05.538Z,101779.00
2023-04-21T20:36:32.616Z,101786.19
2023-04-21T20:39:00.627Z,101776.88
2023-04-21T20:41:27.932Z,101777.75
2023-04-21T20:43:56.251Z,101777.38
2023-04-21T20:46:23.847Z,101775.75
2023-04-21T20:48:51.514Z,101775.75
2023-04-21T20:51:18.488Z,101783.09
2023-04-21T20:53:46.026Z,101788.16
2023-04-21T20:56:13.696Z,101774.59
2023-04-21T20:58:41.701Z,101774.75
2023-04-21T21:01:08.496Z,101777.59
2023-04-21T21:03:35.866Z,101772.50
2023-04-21T21:06:02.822Z,101784.25
2023-04-21T21:08:29.696Z,101766.78
2023-04-21T21:10:56.494Z,101776.91
2023-04-21T21:13:23.307Z,101773.34
2023-04-21T21:15:50.338Z,101768.13
2023-04-21T21:18:17.138Z,101757.44
2023-04-21T21:20:44.101Z,101770.06
2023-04-21T21:23:11.874Z,101763.59
2023-04-21T21:25:38.948Z,101764.97
2023-04-21T21:28:06.383Z,101768.47
2023-04-21T21:30:33.280Z,101765.28
2023-04-21T21:33:00.026Z,101766.09
2023-04-21T21:35:27.949Z,101750.44
2023-04-21T21:37:58.199Z,101770.88
2023-04-21T21:40:24.961Z,101755.88
2023-04-21T21:42:51.727Z,101752.84
2023-04-21T21:45:18.444Z,101756.03
2023-04-21T21:47:45.972Z,101760.72
2023-04-21T21:50:12.846Z,101756.56
2023-04-21T21:52:40.313Z,101754.50
2023-04-21T21:55:08.276Z,101749.94
2023-04-21T21:57:35.590Z,101745.81
2023-04-21T22:00:04.456Z,101743.97
2023-04-21T22:02:31.343Z,101739.47
2023-04-21T22:04:58.355Z,101743.41
2023-04-21T22:07:25.281Z,101734.97
2023-04-21T22:09:53.177Z,101738.41
2023-04-21T22:12:20.023Z,101726.19
2023-04-21T22:14:48.192Z,101728.75
2023-04-21T22:17:16.130Z,101723.31
2023-04-21T22:19:43.215Z,101722.16
2023-04-21T22:22:13.274Z,101729.31
2023-04-21T22:24:40.366Z,101722.22
2023-04-21T22:27:07.086Z,101724.28
2023-04-21T22:29:34.151Z,101729.00
2023-04-21T22:32:02.486Z,101714.56
2023-04-21T22:34:29.252Z,101707.22
2023-04-21T22:36:57.758Z,101718.97
2023-04-21T22:39:28.689Z,101712.16
2023-04-21T22:41:55.679Z,101708.50
2023-04-21T22:44:22.975Z,101712.00
2023-04-21T22:46:51.955Z,101706.75
2023-04-21T22:49:19.032Z,101708.19
2023-04-21T22:51:47.341Z,101695.91
2023-04-21T22:54:14.016Z,101694.91
2023-04-21T22:56:41.364Z,101697.50
2023-04-21T22:59:08.259Z,101689.69
2023-04-21T23:01:35.618Z,101692.09
2023-04-21T23:04:03.624Z,101691.28
2023-04-21T23:06:32.187Z,101694.81
2023-04-21T23:08:58.886Z,101681.19
2023-04-21T23:11:25.822Z,101679.66
2023-04-21T23:13:52.566Z,101683.16
2023-04-21T23:16:19.882Z,101685.19
2023-04-21T23:18:47.859Z,101684.22
2023-04-21T23:21:14.791Z,101685.22
2023-04-21T23:23:41.813Z,101688.41
2023-04-21T23:26:08.551Z,101684.13
2023-04-21T23:28:35.970Z,101686.50
2023-04-21T23:31:02.789Z,101674.56
2023-04-21T23:33:29.506Z,101679.38
2023-04-21T23:35:56.501Z,101676.63
2023-04-21T23:38:23.150Z,101673.50
2023-04-21T23:40:50.512Z,101668.81
2023-04-21T23:43:17.520Z,101675.72
2023-04-21T23:45:44.349Z,101666.00
2023-04-21T23:48:11.736Z,101664.09
2023-04-21T23:50:38.598Z,101666.38
2023-04-21T23:53:05.729Z,101654.66
2023-04-21T23:55:32.475Z,101650.34
2023-04-21T23:57:59.175Z,101647.00
